Time;durP1;ratioP1;P1;durP2;ratioP2;P2;SDS_P1;SDS_P2;PMS_P1;PMS_P2;Temp;Humidity;BMP_temperature;BMP_pressure;BME280_temperature;BME280_humidity;BME280_pressure;Samples;Min_cycle;Max_cycle;Signal;HPM_P1;HPM_P2
2023/08/28 21:05:23;;;;;;;9.10;6.90;;;;;;;;;;105937;313;564784;-41
2023/08/28 21:07:59;;;;;;;8.00;6.90;;;;;;;;;;107072;305;299278;-41
2023/08/28 21:10:35;;;;;;;7.50;6.50;;;;;;;;;;107164;303;174958;-39
2023/08/28 21:13:09;;;;;;;8.50;6.50;;;;;;;;;;107455;304;38686;-41
2023/08/28 21:15:44;;;;;;;8.00;6.50;;;;;;;;;;107268;302;46725;-41
2023/08/28 21:18:18;;;;;;;8.60;6.40;;;;;;;;;;107573;302;42863;-41
2023/08/28 21:20:53;;;;;;;7.50;6.30;;;;;;;;;;107870;297;42231;-41
2023/08/28 21:23:26;;;;;;;9.90;6.30;;;;;;;;;;107589;297;175499;-41
2023/08/28 21:26:03;;;;;;;7.40;6.10;;;;;;;;;;107779;297;45320;-41
2023/08/28 21:28:36;;;;;;;7.90;6.20;;;;;;;;;;107888;297;43895;-41
2023/08/28 21:31:11;;;;;;;7.10;6.20;;;;;;;;;;107889;297;42176;-41
2023/08/28 21:33:47;;;;;;;7.60;6.40;;;;;;;;;;107909;297;38518;-41
2023/08/28 21:36:21;;;;;;;9.00;6.50;;;;;;;;;;107808;297;45412;-40
2023/08/28 21:38:55;;;;;;;8.00;7.10;;;;;;;;;;107877;297;42717;-40
2023/08/28 21:41:30;;;;;;;9.30;7.00;;;;;;;;;;107723;297;41992;-39
2023/08/28 21:44:08;;;;;;;8.70;7.10;;;;;;;;;;107883;297;39056;-39
2023/08/28 21:46:44;;;;;;;8.70;7.10;;;;;;;;;;107803;297;45369;-39
2023/08/28 21:49:24;;;;;;;7.10;6.40;;;;;;;;;;107798;298;42530;-40
2023/08/28 21:51:57;;;;;;;8.50;7.10;;;;;;;;;;107841;296;41820;-40
2023/08/28 21:54:30;;;;;;;8.00;6.20;;;;;;;;;;107888;296;38505;-40
2023/08/28 21:57:05;;;;;;;8.40;6.60;;;;;;;;;;107885;296;39337;-40
2023/08/28 21:59:43;;;;;;;8.00;6.50;;;;;;;;;;107905;296;42576;-40
2023/08/28 22:02:17;;;;;;;9.70;6.50;;;;;;;;;;107899;296;42085;-40
2023/08/28 22:04:53;;;;;;;9.00;7.00;;;;;;;;;;107830;296;38471;-40
2023/08/28 22:07:26;;;;;;;9.10;6.90;;;;;;;;;;107920;296;46387;-40
2023/08/28 22:10:00;;;;;;;8.10;6.50;;;;;;;;;;107292;296;892096;-40
2023/08/28 22:12:34;;;;;;;9.70;6.50;;;;;;;;;;107915;296;42585;-41
2023/08/28 22:15:14;;;;;;;9.80;6.60;;;;;;;;;;107863;296;39957;-40
2023/08/28 22:17:48;;;;;;;8.80;6.30;;;;;;;;;;107936;296;45763;-40
2023/08/28 22:20:23;;;;;;;7.80;6.50;;;;;;;;;;107852;296;42505;-41
2023/08/28 22:22:57;;;;;;;7.50;5.90;;;;;;;;;;107994;293;43275;-40
2023/08/28 22:25:30;;;;;;;7.50;6.00;;;;;;;;;;107942;293;38657;-40
2023/08/28 22:28:04;;;;;;;7.70;6.00;;;;;;;;;;107973;293;46034;-39
2023/08/28 22:30:38;;;;;;;6.70;5.80;;;;;;;;;;107968;293;42722;-40
2023/08/28 22:33:12;;;;;;;7.00;5.80;;;;;;;;;;107987;293;41982;-39
2023/08/28 22:35:46;;;;;;;6.70;5.30;;;;;;;;;;107967;293;38693;-40
2023/08/28 22:38:20;;;;;;;6.90;5.70;;;;;;;;;;107968;293;47355;-39
2023/08/28 22:40:54;;;;;;;7.40;5.60;;;;;;;;;;107952;293;42633;-40
2023/08/28 22:43:27;;;;;;;6.80;5.40;;;;;;;;;;107969;293;43134;-40
2023/08/28 22:46:03;;;;;;;7.20;5.60;;;;;;;;;;107966;293;38748;-40
2023/08/28 22:48:37;;;;;;;7.40;5.70;;;;;;;;;;107956;293;45903;-40
2023/08/28 22:51:11;;;;;;;6.50;5.50;;;;;;;;;;107922;293;42438;-40
2023/08/28 22:53:45;;;;;;;6.50;5.20;;;;;;;;;;107959;293;41782;-40
2023/08/28 22:56:20;;;;;;;8.00;5.90;;;;;;;;;;107960;293;38491;-40
2023/08/28 22:58:57;;;;;;;7.10;5.50;;;;;;;;;;107946;293;45478;-41
2023/08/28 23:01:33;;;;;;;7.00;5.50;;;;;;;;;;107971;293;42790;-40
2023/08/28 23:04:11;;;;;;;6.80;5.40;;;;;;;;;;107903;293;42078;-40
2023/08/28 23:06:49;;;;;;;9.00;6.60;;;;;;;;;;107922;293;40451;-40
2023/08/28 23:09:26;;;;;;;9.70;6.90;;;;;;;;;;107926;293;40786;-40
2023/08/28 23:11:59;;;;;;;10.70;7.20;;;;;;;;;;107961;293;43361;-40
2023/08/28 23:14:32;;;;;;;9.80;7.30;;;;;;;;;;107908;293;43189;-40
2023/08/28 23:17:07;;;;;;;11.10;7.40;;;;;;;;;;107933;293;38731;-40
2023/08/28 23:19:41;;;;;;;10.30;7.40;;;;;;;;;;107973;293;39637;-40
2023/08/28 23:22:14;;;;;;;11.30;7.50;;;;;;;;;;107923;293;42751;-40
2023/08/28 23:24:51;;;;;;;11.20;7.40;;;;;;;;;;107922;293;41902;-40
2023/08/28 23:27:27;;;;;;;11.10;7.60;;;;;;;;;;107919;293;38752;-40
2023/08/28 23:30:03;;;;;;;10.90;7.20;;;;;;;;;;107990;293;39614;-40
2023/08/28 23:32:37;;;;;;;9.30;7.10;;;;;;;;;;108010;293;42735;-40
2023/08/28 23:35:14;;;;;;;8.60;6.10;;;;;;;;;;108005;293;42035;-40
2023/08/28 23:37:47;;;;;;;8.70;6.10;;;;;;;;;;107999;293;38718;-41
2023/08/28 23:40:21;;;;;;;8.20;5.90;;;;;;;;;;108032;293;39667;-40
2023/08/28 23:42:54;;;;;;;8.70;6.20;;;;;;;;;;107980;293;44086;-39
2023/08/28 23:45:27;;;;;;;8.10;6.40;;;;;;;;;;108002;293;42522;-39
2023/08/28 23:48:01;;;;;;;8.50;6.30;;;;;;;;;;107953;293;39090;-39
2023/08/28 23:50:34;;;;;;;9.70;6.20;;;;;;;;;;107968;293;39702;-39
2023/08/28 23:53:08;;;;;;;8.90;6.70;;;;;;;;;;107984;293;43018;-39
2023/08/28 23:55:41;;;;;;;7.80;6.30;;;;;;;;;;107976;293;42191;-39
2023/08/28 23:58:14;;;;;;;8.80;6.90;;;;;;;;;;107926;293;38712;-39
